sensor_id;sensor_type;location;lat;lon;timestamp;P1;durP1;ratioP1;P2;durP2;ratioP2
24801;SDS011;12898;50.520;12.152;2023-02-04T00:01:51;14.73;;;2.67;;
24801;SDS011;12898;50.520;12.152;2023-02-04T00:04:17;15.73;;;2.13;;
24801;SDS011;12898;50.520;12.152;2023-02-04T00:06:43;8.90;;;1.90;;
24801;SDS011;12898;50.520;12.152;2023-02-04T00:09:08;12.67;;;1.87;;
24801;SDS011;12898;50.520;12.152;2023-02-04T00:11:34;13.27;;;2.23;;
24801;SDS011;12898;50.520;12.152;2023-02-04T00:14:00;14.60;;;1.90;;
24801;SDS011;12898;50.520;12.152;2023-02-04T00:16:25;9.73;;;1.93;;
24801;SDS011;12898;50.520;12.152;2023-02-04T00:18:51;10.73;;;2.03;;
24801;SDS011;12898;50.520;12.152;2023-02-04T00:21:17;11.57;;;2.20;;
24801;SDS011;12898;50.520;12.152;2023-02-04T00:23:42;16.23;;;2.73;;
24801;SDS011;12898;50.520;12.152;2023-02-04T00:26:08;14.57;;;2.37;;
24801;SDS011;12898;50.520;12.152;2023-02-04T00:28:34;11.60;;;2.00;;
24801;SDS011;12898;50.520;12.152;2023-02-04T00:30:59;14.20;;;2.07;;
24801;SDS011;12898;50.520;12.152;2023-02-04T00:33:25;13.53;;;1.80;;
24801;SDS011;12898;50.520;12.152;2023-02-04T00:35:51;11.47;;;2.53;;
24801;SDS011;12898;50.520;12.152;2023-02-04T00:38:16;14.93;;;2.80;;
24801;SDS011;12898;50.520;12.152;2023-02-04T00:40:42;14.40;;;2.27;;
24801;SDS011;12898;50.520;12.152;2023-02-04T00:43:08;18.00;;;2.63;;
24801;SDS011;12898;50.520;12.152;2023-02-04T00:45:33;16.77;;;2.00;;
24801;SDS011;12898;50.520;12.152;2023-02-04T00:47:59;10.57;;;2.03;;
24801;SDS011;12898;50.520;12.152;2023-02-04T00:50:25;14.00;;;1.93;;
24801;SDS011;12898;50.520;12.152;2023-02-04T00:52:50;13.43;;;2.53;;
24801;SDS011;12898;50.520;12.152;2023-02-04T00:55:16;13.23;;;2.10;;
24801;SDS011;12898;50.520;12.152;2023-02-04T00:57:43;12.43;;;2.70;;
24801;SDS011;12898;50.520;12.152;2023-02-04T01:00:13;16.57;;;2.67;;
24801;SDS011;12898;50.520;12.152;2023-02-04T01:02:40;12.30;;;1.83;;
24801;SDS011;12898;50.520;12.152;2023-02-04T01:05:09;15.33;;;2.03;;
24801;SDS011;12898;50.520;12.152;2023-02-04T01:07:34;12.07;;;2.10;;
24801;SDS011;12898;50.520;12.152;2023-02-04T01:10:00;15.03;;;2.50;;
24801;SDS011;12898;50.520;12.152;2023-02-04T01:12:27;15.77;;;2.30;;
24801;SDS011;12898;50.520;12.152;2023-02-04T01:14:53;14.83;;;2.50;;
24801;SDS011;12898;50.520;12.152;2023-02-04T01:17:19;10.47;;;2.17;;
24801;SDS011;12898;50.520;12.152;2023-02-04T01:19:45;17.20;;;2.63;;
24801;SDS011;12898;50.520;12.152;2023-02-04T01:22:11;7.30;;;1.50;;
24801;SDS011;12898;50.520;12.152;2023-02-04T01:24:37;11.73;;;2.07;;
24801;SDS011;12898;50.520;12.152;2023-02-04T01:27:03;15.30;;;2.07;;
24801;SDS011;12898;50.520;12.152;2023-02-04T01:29:30;11.43;;;1.70;;
24801;SDS011;12898;50.520;12.152;2023-02-04T01:31:56;14.57;;;2.30;;
24801;SDS011;12898;50.520;12.152;2023-02-04T01:34:21;10.70;;;1.70;;
24801;SDS011;12898;50.520;12.152;2023-02-04T01:36:47;9.73;;;2.00;;
24801;SDS011;12898;50.520;12.152;2023-02-04T01:39:13;9.33;;;1.87;;
24801;SDS011;12898;50.520;12.152;2023-02-04T01:41:39;9.90;;;1.80;;
24801;SDS011;12898;50.520;12.152;2023-02-04T01:44:05;12.73;;;2.00;;
24801;SDS011;12898;50.520;12.152;2023-02-04T01:46:30;9.37;;;1.80;;
24801;SDS011;12898;50.520;12.152;2023-02-04T01:48:59;12.40;;;2.03;;
24801;SDS011;12898;50.520;12.152;2023-02-04T01:51:26;10.73;;;2.13;;
24801;SDS011;12898;50.520;12.152;2023-02-04T01:53:54;7.27;;;1.30;;
24801;SDS011;12898;50.520;12.152;2023-02-04T01:56:21;4.90;;;1.10;;
24801;SDS011;12898;50.520;12.152;2023-02-04T01:58:50;2.80;;;0.90;;
24801;SDS011;12898;50.520;12.152;2023-02-04T02:01:33;3.33;;;0.70;;
24801;SDS011;12898;50.520;12.152;2023-02-04T02:04:02;1.60;;;0.63;;
24801;SDS011;12898;50.520;12.152;2023-02-04T02:06:29;1.93;;;0.80;;
24801;SDS011;12898;50.520;12.152;2023-02-04T02:08:55;2.53;;;0.90;;
24801;SDS011;12898;50.520;12.152;2023-02-04T02:11:22;1.40;;;0.80;;
24801;SDS011;12898;50.520;12.152;2023-02-04T02:13:50;3.10;;;0.80;;
24801;SDS011;12898;50.520;12.152;2023-02-04T02:16:16;1.07;;;0.90;;
24801;SDS011;12898;50.520;12.152;2023-02-04T02:18:41;2.20;;;1.07;;
24801;SDS011;12898;50.520;12.152;2023-02-04T02:21:08;2.07;;;0.90;;
24801;SDS011;12898;50.520;12.152;2023-02-04T02:23:49;2.33;;;0.90;;
24801;SDS011;12898;50.520;12.152;2023-02-04T02:26:18;4.43;;;1.40;;
24801;SDS011;12898;50.520;12.152;2023-02-04T02:28:45;3.60;;;1.37;;
24801;SDS011;12898;50.520;12.152;2023-02-04T02:31:12;1.87;;;1.37;;
24801;SDS011;12898;50.520;12.152;2023-02-04T02:33:39;3.13;;;1.50;;
24801;SDS011;12898;50.520;12.152;2023-02-04T02:36:06;6.03;;;1.63;;
24801;SDS011;12898;50.520;12.152;2023-02-04T02:38:32;3.37;;;1.70;;
24801;SDS011;12898;50.520;12.152;2023-02-04T02:40:57;4.87;;;1.90;;
24801;SDS011;12898;50.520;12.152;2023-02-04T02:43:24;3.37;;;1.80;;
24801;SDS011;12898;50.520;12.152;2023-02-04T02:45:52;3.03;;;1.90;;
24801;SDS011;12898;50.520;12.152;2023-02-04T02:48:19;3.27;;;2.20;;
24801;SDS011;12898;50.520;12.152;2023-02-04T02:50:45;5.60;;;2.00;;
24801;SDS011;12898;50.520;12.152;2023-02-04T02:53:13;4.27;;;1.80;;
24801;SDS011;12898;50.520;12.152;2023-02-04T02:55:42;5.10;;;1.87;;
24801;SDS011;12898;50.520;12.152;2023-02-04T02:58:21;3.93;;;2.20;;
24801;SDS011;12898;50.520;12.152;2023-02-04T03:00:50;3.87;;;2.10;;
24801;SDS011;12898;50.520;12.152;2023-02-04T03:03:18;3.93;;;2.63;;
24801;SDS011;12898;50.520;12.152;2023-02-04T03:05:49;5.23;;;2.37;;
24801;SDS011;12898;50.520;12.152;2023-02-04T03:08:19;6.43;;;2.20;;
24801;SDS011;12898;50.520;12.152;2023-02-04T03:10:45;5.90;;;2.50;;
24801;SDS011;12898;50.520;12.152;2023-02-04T03:13:11;5.17;;;2.60;;
24801;SDS011;12898;50.520;12.152;2023-02-04T03:15:39;6.63;;;2.37;;
24801;SDS011;12898;50.520;12.152;2023-02-04T03:18:07;5.10;;;2.90;;
24801;SDS011;12898;50.520;12.152;2023-02-04T03:20:33;3.60;;;2.70;;
24801;SDS011;12898;50.520;12.152;2023-02-04T03:22:59;4.27;;;2.80;;
24801;SDS011;12898;50.520;12.152;2023-02-04T03:25:25;6.30;;;3.00;;
24801;SDS011;12898;50.520;12.152;2023-02-04T03:27:52;6.87;;;3.53;;
24801;SDS011;12898;50.520;12.152;2023-02-04T03:30:20;4.67;;;3.00;;
24801;SDS011;12898;50.520;12.152;2023-02-04T03:32:46;6.27;;;3.70;;
24801;SDS011;12898;50.520;12.152;2023-02-04T03:35:12;6.70;;;3.27;;
24801;SDS011;12898;50.520;12.152;2023-02-04T03:37:37;4.90;;;3.40;;
24801;SDS011;12898;50.520;12.152;2023-02-04T03:40:03;6.63;;;3.60;;
24801;SDS011;12898;50.520;12.152;2023-02-04T03:42:29;4.87;;;3.03;;
24801;SDS011;12898;50.520;12.152;2023-02-04T03:44:55;5.63;;;3.07;;
24801;SDS011;12898;50.520;12.152;2023-02-04T03:47:21;5.63;;;3.00;;
24801;SDS011;12898;50.520;12.152;2023-02-04T03:49:46;9.50;;;3.43;;
24801;SDS011;12898;50.520;12.152;2023-02-04T03:52:12;4.03;;;2.67;;
24801;SDS011;12898;50.520;12.152;2023-02-04T03:54:38;5.93;;;2.93;;
24801;SDS011;12898;50.520;12.152;2023-02-04T03:57:03;7.10;;;3.13;;
24801;SDS011;12898;50.520;12.152;2023-02-04T03:59:29;4.27;;;2.40;;
24801;SDS011;12898;50.520;12.152;2023-02-04T04:01:55;4.70;;;2.67;;
24801;SDS011;12898;50.520;12.152;2023-02-04T04:04:20;5.57;;;2.73;;
24801;SDS011;12898;50.520;12.152;2023-02-04T04:06:46;7.53;;;2.63;;
24801;SDS011;12898;50.520;12.152;2023-02-04T04:09:12;3.90;;;2.20;;
24801;SDS011;12898;50.520;12.152;2023-02-04T04:11:37;3.47;;;2.30;;
24801;SDS011;12898;50.520;12.152;2023-02-04T04:14:03;3.77;;;2.40;;
24801;SDS011;12898;50.520;12.152;2023-02-04T04:16:28;4.37;;;2.50;;
24801;SDS011;12898;50.520;12.152;2023-02-04T04:18:54;6.03;;;2.80;;
24801;SDS011;12898;50.520;12.152;2023-02-04T04:21:20;5.17;;;2.43;;
24801;SDS011;12898;50.520;12.152;2023-02-04T04:23:46;7.33;;;3.00;;
24801;SDS011;12898;50.520;12.152;2023-02-04T04:26:12;5.17;;;2.67;;
24801;SDS011;12898;50.520;12.152;2023-02-04T04:28:38;5.23;;;2.77;;
24801;SDS011;12898;50.520;12.152;2023-02-04T04:31:03;4.87;;;2.50;;
24801;SDS011;12898;50.520;12.152;2023-02-04T04:33:29;4.87;;;2.70;;
24801;SDS011;12898;50.520;12.152;2023-02-04T04:35:55;5.33;;;3.20;;
24801;SDS011;12898;50.520;12.152;2023-02-04T04:38:20;6.93;;;3.23;;
24801;SDS011;12898;50.520;12.152;2023-02-04T04:40:46;4.43;;;2.70;;
24801;SDS011;12898;50.520;12.152;2023-02-04T04:43:12;5.53;;;2.33;;
24801;SDS011;12898;50.520;12.152;2023-02-04T04:45:37;5.53;;;2.67;;
24801;SDS011;12898;50.520;12.152;2023-02-04T04:48:03;6.37;;;2.33;;
24801;SDS011;12898;50.520;12.152;2023-02-04T04:50:29;4.07;;;2.43;;
24801;SDS011;12898;50.520;12.152;2023-02-04T04:52:55;4.47;;;2.60;;
24801;SDS011;12898;50.520;12.152;2023-02-04T04:55:20;3.67;;;2.10;;
24801;SDS011;12898;50.520;12.152;2023-02-04T04:57:46;5.17;;;2.30;;
24801;SDS011;12898;50.520;12.152;2023-02-04T05:00:16;4.93;;;1.97;;
24801;SDS011;12898;50.520;12.152;2023-02-04T05:02:44;3.87;;;1.80;;
24801;SDS011;12898;50.520;12.152;2023-02-04T05:05:10;4.47;;;1.80;;
24801;SDS011;12898;50.520;12.152;2023-02-04T05:07:36;3.47;;;1.70;;
24801;SDS011;12898;50.520;12.152;2023-02-04T05:10:02;3.70;;;2.00;;
24801;SDS011;12898;50.520;12.152;2023-02-04T05:12:29;4.63;;;2.20;;
24801;SDS011;12898;50.520;12.152;2023-02-04T05:14:55;4.67;;;2.07;;
24801;SDS011;12898;50.520;12.152;2023-02-04T05:17:20;7.10;;;2.43;;
24801;SDS011;12898;50.520;12.152;2023-02-04T05:19:46;6.30;;;2.70;;
24801;SDS011;12898;50.520;12.152;2023-02-04T05:22:11;3.77;;;2.30;;
24801;SDS011;12898;50.520;12.152;2023-02-04T05:24:37;4.57;;;2.40;;
24801;SDS011;12898;50.520;12.152;2023-02-04T05:27:03;4.93;;;2.80;;
24801;SDS011;12898;50.520;12.152;2023-02-04T05:29:28;7.37;;;2.93;;
24801;SDS011;12898;50.520;12.152;2023-02-04T05:31:54;4.47;;;2.50;;
24801;SDS011;12898;50.520;12.152;2023-02-04T05:34:20;3.83;;;2.40;;
24801;SDS011;12898;50.520;12.152;2023-02-04T05:36:45;4.70;;;2.53;;
24801;SDS011;12898;50.520;12.152;2023-02-04T05:39:11;5.17;;;2.50;;
24801;SDS011;12898;50.520;12.152;2023-02-04T05:41:37;6.47;;;2.53;;
24801;SDS011;12898;50.520;12.152;2023-02-04T05:44:03;3.97;;;2.30;;
24801;SDS011;12898;50.520;12.152;2023-02-04T05:46:29;5.37;;;2.80;;
24801;SDS011;12898;50.520;12.152;2023-02-04T05:48:55;5.70;;;3.10;;
24801;SDS011;12898;50.520;12.152;2023-02-04T05:51:20;5.27;;;2.90;;
24801;SDS011;12898;50.520;12.152;2023-02-04T05:53:46;4.13;;;2.80;;
24801;SDS011;12898;50.520;12.152;2023-02-04T05:56:12;4.53;;;2.87;;
24801;SDS011;12898;50.520;12.152;2023-02-04T05:58:37;6.27;;;3.23;;
24801;SDS011;12898;50.520;12.152;2023-02-04T06:01:03;6.87;;;2.90;;
24801;SDS011;12898;50.520;12.152;2023-02-04T06:03:29;4.90;;;3.10;;
24801;SDS011;12898;50.520;12.152;2023-02-04T06:05:56;7.13;;;3.37;;
24801;SDS011;12898;50.520;12.152;2023-02-04T06:08:22;6.63;;;3.50;;
24801;SDS011;12898;50.520;12.152;2023-02-04T06:10:48;4.97;;;3.17;;
24801;SDS011;12898;50.520;12.152;2023-02-04T06:13:14;6.67;;;3.50;;
24801;SDS011;12898;50.520;12.152;2023-02-04T06:15:40;6.60;;;3.47;;
24801;SDS011;12898;50.520;12.152;2023-02-04T06:18:05;7.40;;;3.90;;
24801;SDS011;12898;50.520;12.152;2023-02-04T06:20:31;7.77;;;3.97;;
24801;SDS011;12898;50.520;12.152;2023-02-04T06:22:57;8.00;;;4.00;;
24801;SDS011;12898;50.520;12.152;2023-02-04T06:25:23;7.60;;;3.80;;
24801;SDS011;12898;50.520;12.152;2023-02-04T06:27:49;7.50;;;3.80;;
24801;SDS011;12898;50.520;12.152;2023-02-04T06:30:15;8.20;;;4.20;;
24801;SDS011;12898;50.520;12.152;2023-02-04T06:32:41;9.00;;;4.07;;
24801;SDS011;12898;50.520;12.152;2023-02-04T06:35:07;9.23;;;4.40;;
24801;SDS011;12898;50.520;12.152;2023-02-04T06:37:34;8.00;;;4.37;;
24801;SDS011;12898;50.520;12.152;2023-02-04T06:39:59;6.80;;;4.20;;
24801;SDS011;12898;50.520;12.152;2023-02-04T06:42:25;7.40;;;4.77;;
24801;SDS011;12898;50.520;12.152;2023-02-04T06:44:51;9.27;;;4.97;;
24801;SDS011;12898;50.520;12.152;2023-02-04T06:47:17;10.97;;;5.10;;
24801;SDS011;12898;50.520;12.152;2023-02-04T06:49:43;8.30;;;5.23;;
24801;SDS011;12898;50.520;12.152;2023-02-04T06:52:09;10.33;;;5.00;;
24801;SDS011;12898;50.520;12.152;2023-02-04T06:54:35;10.27;;;5.37;;
24801;SDS011;12898;50.520;12.152;2023-02-04T06:57:01;9.40;;;5.27;;
24801;SDS011;12898;50.520;12.152;2023-02-04T06:59:33;10.10;;;5.10;;
24801;SDS011;12898;50.520;12.152;2023-02-04T07:02:00;9.73;;;5.30;;
24801;SDS011;12898;50.520;12.152;2023-02-04T07:04:27;9.87;;;5.03;;
24801;SDS011;12898;50.520;12.152;2023-02-04T07:06:53;9.03;;;5.10;;
24801;SDS011;12898;50.520;12.152;2023-02-04T07:09:18;10.83;;;5.20;;
24801;SDS011;12898;50.520;12.152;2023-02-04T07:11:44;8.60;;;5.13;;
24801;SDS011;12898;50.520;12.152;2023-02-04T07:14:10;9.10;;;5.27;;
24801;SDS011;12898;50.520;12.152;2023-02-04T07:16:36;7.93;;;4.70;;
24801;SDS011;12898;50.520;12.152;2023-02-04T07:19:02;7.70;;;4.60;;
24801;SDS011;12898;50.520;12.152;2023-02-04T07:21:28;7.87;;;4.53;;
24801;SDS011;12898;50.520;12.152;2023-02-04T07:23:54;8.57;;;4.90;;
24801;SDS011;12898;50.520;12.152;2023-02-04T07:26:20;9.40;;;4.87;;
24801;SDS011;12898;50.520;12.152;2023-02-04T07:28:45;9.77;;;3.87;;
24801;SDS011;12898;50.520;12.152;2023-02-04T07:31:11;7.03;;;3.90;;
24801;SDS011;12898;50.520;12.152;2023-02-04T07:33:37;7.67;;;3.60;;
24801;SDS011;12898;50.520;12.152;2023-02-04T07:36:03;6.80;;;3.40;;
24801;SDS011;12898;50.520;12.152;2023-02-04T07:38:29;6.33;;;3.40;;
24801;SDS011;12898;50.520;12.152;2023-02-04T07:40:54;7.43;;;3.20;;
24801;SDS011;12898;50.520;12.152;2023-02-04T07:43:20;6.83;;;3.07;;
24801;SDS011;12898;50.520;12.152;2023-02-04T07:45:46;21.27;;;9.13;;
24801;SDS011;12898;50.520;12.152;2023-02-04T07:48:11;12.17;;;5.40;;
24801;SDS011;12898;50.520;12.152;2023-02-04T07:50:37;8.67;;;4.50;;
24801;SDS011;12898;50.520;12.152;2023-02-04T07:53:06;13.37;;;6.73;;
24801;SDS011;12898;50.520;12.152;2023-02-04T07:55:32;12.47;;;6.77;;
24801;SDS011;12898;50.520;12.152;2023-02-04T07:57:57;11.07;;;5.30;;
24801;SDS011;12898;50.520;12.152;2023-02-04T08:00:23;10.97;;;5.47;;
24801;SDS011;12898;50.520;12.152;2023-02-04T08:02:49;13.80;;;6.17;;
24801;SDS011;12898;50.520;12.152;2023-02-04T08:05:15;8.57;;;4.00;;
24801;SDS011;12898;50.520;12.152;2023-02-04T08:07:41;5.63;;;3.50;;
24801;SDS011;12898;50.520;12.152;2023-02-04T08:10:07;6.03;;;3.07;;
24801;SDS011;12898;50.520;12.152;2023-02-04T08:12:34;6.30;;;3.30;;
24801;SDS011;12898;50.520;12.152;2023-02-04T08:15:00;4.57;;;2.40;;
24801;SDS011;12898;50.520;12.152;2023-02-04T08:17:26;5.20;;;2.60;;
24801;SDS011;12898;50.520;12.152;2023-02-04T08:19:52;5.93;;;2.77;;
24801;SDS011;12898;50.520;12.152;2023-02-04T08:22:18;5.07;;;2.77;;
24801;SDS011;12898;50.520;12.152;2023-02-04T08:24:44;5.50;;;2.60;;
24801;SDS011;12898;50.520;12.152;2023-02-04T08:27:09;5.33;;;2.90;;
24801;SDS011;12898;50.520;12.152;2023-02-04T08:29:35;4.77;;;2.80;;
24801;SDS011;12898;50.520;12.152;2023-02-04T08:32:01;6.53;;;2.93;;
24801;SDS011;12898;50.520;12.152;2023-02-04T08:34:28;6.93;;;3.20;;
24801;SDS011;12898;50.520;12.152;2023-02-04T08:36:54;6.60;;;2.90;;
24801;SDS011;12898;50.520;12.152;2023-02-04T08:39:20;5.83;;;2.80;;
24801;SDS011;12898;50.520;12.152;2023-02-04T08:41:46;3.97;;;2.43;;
24801;SDS011;12898;50.520;12.152;2023-02-04T08:44:13;6.37;;;3.13;;
24801;SDS011;12898;50.520;12.152;2023-02-04T08:46:39;4.53;;;2.30;;
24801;SDS011;12898;50.520;12.152;2023-02-04T08:49:05;4.20;;;2.33;;
24801;SDS011;12898;50.520;12.152;2023-02-04T08:51:30;7.40;;;4.23;;
24801;SDS011;12898;50.520;12.152;2023-02-04T08:53:56;6.00;;;2.47;;
24801;SDS011;12898;50.520;12.152;2023-02-04T08:56:22;5.47;;;2.50;;
24801;SDS011;12898;50.520;12.152;2023-02-04T08:58:48;5.83;;;2.43;;
24801;SDS011;12898;50.520;12.152;2023-02-04T09:01:14;5.47;;;2.70;;
24801;SDS011;12898;50.520;12.152;2023-02-04T09:03:39;5.23;;;2.73;;
24801;SDS011;12898;50.520;12.152;2023-02-04T09:06:05;7.40;;;2.50;;
24801;SDS011;12898;50.520;12.152;2023-02-04T09:08:31;5.53;;;2.70;;
24801;SDS011;12898;50.520;12.152;2023-02-04T09:10:57;5.97;;;2.80;;
24801;SDS011;12898;50.520;12.152;2023-02-04T09:13:23;5.80;;;2.90;;
24801;SDS011;12898;50.520;12.152;2023-02-04T09:15:49;5.13;;;2.17;;
24801;SDS011;12898;50.520;12.152;2023-02-04T09:18:16;6.80;;;2.27;;
24801;SDS011;12898;50.520;12.152;2023-02-04T09:20:46;5.07;;;2.40;;
24801;SDS011;12898;50.520;12.152;2023-02-04T09:23:13;4.90;;;2.40;;
24801;SDS011;12898;50.520;12.152;2023-02-04T09:25:40;5.03;;;2.17;;
24801;SDS011;12898;50.520;12.152;2023-02-04T09:28:08;3.37;;;1.97;;
24801;SDS011;12898;50.520;12.152;2023-02-04T09:30:36;3.27;;;2.00;;
24801;SDS011;12898;50.520;12.152;2023-02-04T09:33:06;6.87;;;2.57;;
24801;SDS011;12898;50.520;12.152;2023-02-04T09:35:32;5.80;;;2.70;;
24801;SDS011;12898;50.520;12.152;2023-02-04T09:37:58;4.90;;;2.70;;
24801;SDS011;12898;50.520;12.152;2023-02-04T09:40:25;5.70;;;2.80;;
24801;SDS011;12898;50.520;12.152;2023-02-04T09:42:52;6.33;;;2.90;;
24801;SDS011;12898;50.520;12.152;2023-02-04T09:45:23;3.90;;;1.97;;
24801;SDS011;12898;50.520;12.152;2023-02-04T09:47:53;7.70;;;3.03;;
24801;SDS011;12898;50.520;12.152;2023-02-04T09:50:22;3.83;;;2.27;;
24801;SDS011;12898;50.520;12.152;2023-02-04T09:52:51;5.37;;;1.93;;
24801;SDS011;12898;50.520;12.152;2023-02-04T09:55:21;7.67;;;2.87;;
24801;SDS011;12898;50.520;12.152;2023-02-04T09:58:17;3.77;;;1.97;;
24801;SDS011;12898;50.520;12.152;2023-02-04T10:00:46;3.63;;;1.83;;
24801;SDS011;12898;50.520;12.152;2023-02-04T10:03:23;5.13;;;2.10;;
24801;SDS011;12898;50.520;12.152;2023-02-04T10:05:48;3.57;;;1.63;;
24801;SDS011;12898;50.520;12.152;2023-02-04T10:08:22;3.60;;;1.70;;
24801;SDS011;12898;50.520;12.152;2023-02-04T10:10:53;2.53;;;1.40;;
24801;SDS011;12898;50.520;12.152;2023-02-04T10:13:21;4.90;;;1.90;;
24801;SDS011;12898;50.520;12.152;2023-02-04T10:15:55;5.83;;;2.10;;
24801;SDS011;12898;50.520;12.152;2023-02-04T10:18:25;4.33;;;2.30;;
24801;SDS011;12898;50.520;12.152;2023-02-04T10:23:48;5.40;;;2.57;;
24801;SDS011;12898;50.520;12.152;2023-02-04T10:26:18;3.70;;;2.10;;
24801;SDS011;12898;50.520;12.152;2023-02-04T10:28:46;3.47;;;2.03;;
24801;SDS011;12898;50.520;12.152;2023-02-04T10:31:30;3.23;;;1.50;;
24801;SDS011;12898;50.520;12.152;2023-02-04T10:36:42;5.57;;;2.10;;
24801;SDS011;12898;50.520;12.152;2023-02-04T10:44:17;3.47;;;1.70;;
24801;SDS011;12898;50.520;12.152;2023-02-04T10:46:57;2.90;;;1.60;;
24801;SDS011;12898;50.520;12.152;2023-02-04T10:49:25;4.63;;;1.67;;
24801;SDS011;12898;50.520;12.152;2023-02-04T10:51:51;3.93;;;1.40;;
24801;SDS011;12898;50.520;12.152;2023-02-04T10:54:21;5.00;;;2.10;;
24801;SDS011;12898;50.520;12.152;2023-02-04T10:57:44;2.60;;;1.50;;
24801;SDS011;12898;50.520;12.152;2023-02-04T10:59:57;4.63;;;1.50;;
24801;SDS011;12898;50.520;12.152;2023-02-04T11:02:30;5.43;;;1.70;;
24801;SDS011;12898;50.520;12.152;2023-02-04T11:05:11;3.97;;;1.80;;
24801;SDS011;12898;50.520;12.152;2023-02-04T11:07:43;1.93;;;1.30;;
24801;SDS011;12898;50.520;12.152;2023-02-04T11:10:11;2.33;;;1.33;;
24801;SDS011;12898;50.520;12.152;2023-02-04T11:12:58;3.20;;;1.90;;
24801;SDS011;12898;50.520;12.152;2023-02-04T11:15:40;4.83;;;2.00;;
24801;SDS011;12898;50.520;12.152;2023-02-04T11:18:09;5.77;;;2.13;;
24801;SDS011;12898;50.520;12.152;2023-02-04T11:20:44;6.00;;;2.60;;
24801;SDS011;12898;50.520;12.152;2023-02-04T11:26:00;5.60;;;2.60;;
24801;SDS011;12898;50.520;12.152;2023-02-04T11:28:37;5.60;;;2.17;;
24801;SDS011;12898;50.520;12.152;2023-02-04T11:39:42;4.43;;;1.70;;
24801;SDS011;12898;50.520;12.152;2023-02-04T11:44:59;4.03;;;1.77;;
24801;SDS011;12898;50.520;12.152;2023-02-04T11:47:33;5.43;;;1.70;;
24801;SDS011;12898;50.520;12.152;2023-02-04T11:50:01;4.83;;;1.93;;
24801;SDS011;12898;50.520;12.152;2023-02-04T11:52:35;3.83;;;1.70;;
24801;SDS011;12898;50.520;12.152;2023-02-04T11:55:01;3.33;;;1.60;;
24801;SDS011;12898;50.520;12.152;2023-02-04T11:57:27;3.90;;;1.80;;
24801;SDS011;12898;50.520;12.152;2023-02-04T11:59:53;3.20;;;1.73;;
24801;SDS011;12898;50.520;12.152;2023-02-04T12:02:20;5.43;;;1.73;;
24801;SDS011;12898;50.520;12.152;2023-02-04T12:04:51;3.37;;;1.40;;
24801;SDS011;12898;50.520;12.152;2023-02-04T12:07:23;6.37;;;2.30;;
24801;SDS011;12898;50.520;12.152;2023-02-04T12:09:52;3.53;;;1.70;;
24801;SDS011;12898;50.520;12.152;2023-02-04T12:12:25;4.63;;;1.80;;
24801;SDS011;12898;50.520;12.152;2023-02-04T12:15:01;3.03;;;1.80;;
24801;SDS011;12898;50.520;12.152;2023-02-04T12:18:04;4.23;;;1.83;;
24801;SDS011;12898;50.520;12.152;2023-02-04T12:20:32;4.10;;;2.20;;
24801;SDS011;12898;50.520;12.152;2023-02-04T12:22:59;7.53;;;2.60;;
24801;SDS011;12898;50.520;12.152;2023-02-04T12:25:25;6.80;;;2.47;;
24801;SDS011;12898;50.520;12.152;2023-02-04T12:27:52;4.67;;;2.20;;
24801;SDS011;12898;50.520;12.152;2023-02-04T12:30:19;4.83;;;1.90;;
24801;SDS011;12898;50.520;12.152;2023-02-04T12:32:46;4.77;;;1.50;;
24801;SDS011;12898;50.520;12.152;2023-02-04T12:35:12;7.53;;;1.83;;
24801;SDS011;12898;50.520;12.152;2023-02-04T12:37:38;8.10;;;2.20;;
24801;SDS011;12898;50.520;12.152;2023-02-04T12:40:04;2.97;;;1.60;;
24801;SDS011;12898;50.520;12.152;2023-02-04T12:42:30;2.10;;;1.40;;
24801;SDS011;12898;50.520;12.152;2023-02-04T12:44:56;4.93;;;2.10;;
24801;SDS011;12898;50.520;12.152;2023-02-04T12:47:21;4.97;;;2.97;;
24801;SDS011;12898;50.520;12.152;2023-02-04T12:49:47;2.30;;;1.30;;
24801;SDS011;12898;50.520;12.152;2023-02-04T12:52:13;3.60;;;1.60;;
24801;SDS011;12898;50.520;12.152;2023-02-04T12:54:39;6.00;;;2.60;;
24801;SDS011;12898;50.520;12.152;2023-02-04T12:57:04;2.43;;;1.70;;
24801;SDS011;12898;50.520;12.152;2023-02-04T12:59:30;5.27;;;1.90;;
24801;SDS011;12898;50.520;12.152;2023-02-04T13:01:56;6.20;;;2.17;;
24801;SDS011;12898;50.520;12.152;2023-02-04T13:04:22;4.17;;;1.80;;
24801;SDS011;12898;50.520;12.152;2023-02-04T13:06:48;4.53;;;1.87;;
24801;SDS011;12898;50.520;12.152;2023-02-04T13:09:13;2.50;;;1.53;;
24801;SDS011;12898;50.520;12.152;2023-02-04T13:11:39;3.77;;;1.83;;
24801;SDS011;12898;50.520;12.152;2023-02-04T13:14:05;3.63;;;1.90;;
24801;SDS011;12898;50.520;12.152;2023-02-04T13:16:31;5.85;;;2.28;;
24801;SDS011;12898;50.520;12.152;2023-02-04T13:18:57;5.13;;;2.37;;
24801;SDS011;12898;50.520;12.152;2023-02-04T13:21:22;5.23;;;2.20;;
24801;SDS011;12898;50.520;12.152;2023-02-04T13:23:48;5.40;;;2.40;;
24801;SDS011;12898;50.520;12.152;2023-02-04T13:26:14;12.90;;;4.70;;
24801;SDS011;12898;50.520;12.152;2023-02-04T13:28:39;3.90;;;2.20;;
24801;SDS011;12898;50.520;12.152;2023-02-04T13:31:05;4.13;;;2.17;;
24801;SDS011;12898;50.520;12.152;2023-02-04T13:33:31;3.73;;;1.50;;
24801;SDS011;12898;50.520;12.152;2023-02-04T13:35:57;4.00;;;1.50;;
24801;SDS011;12898;50.520;12.152;2023-02-04T13:38:23;3.10;;;1.77;;
24801;SDS011;12898;50.520;12.152;2023-02-04T13:40:49;7.53;;;3.23;;
24801;SDS011;12898;50.520;12.152;2023-02-04T13:43:15;6.10;;;2.10;;
24801;SDS011;12898;50.520;12.152;2023-02-04T13:45:41;3.77;;;1.87;;
24801;SDS011;12898;50.520;12.152;2023-02-04T13:48:11;5.03;;;1.73;;
24801;SDS011;12898;50.520;12.152;2023-02-04T13:50:37;4.20;;;1.37;;
24801;SDS011;12898;50.520;12.152;2023-02-04T13:53:03;4.40;;;1.67;;
24801;SDS011;12898;50.520;12.152;2023-02-04T13:55:29;4.40;;;1.60;;
24801;SDS011;12898;50.520;12.152;2023-02-04T13:57:55;3.40;;;1.20;;
24801;SDS011;12898;50.520;12.152;2023-02-04T14:00:21;4.33;;;1.83;;
24801;SDS011;12898;50.520;12.152;2023-02-04T14:02:46;3.07;;;1.60;;
24801;SDS011;12898;50.520;12.152;2023-02-04T14:05:12;3.90;;;1.70;;
24801;SDS011;12898;50.520;12.152;2023-02-04T14:07:39;2.63;;;1.40;;
24801;SDS011;12898;50.520;12.152;2023-02-04T14:10:05;4.17;;;1.67;;
24801;SDS011;12898;50.520;12.152;2023-02-04T14:12:31;3.07;;;1.60;;
24801;SDS011;12898;50.520;12.152;2023-02-04T14:14:57;3.27;;;1.80;;
24801;SDS011;12898;50.520;12.152;2023-02-04T14:17:23;1.70;;;1.27;;
24801;SDS011;12898;50.520;12.152;2023-02-04T14:19:48;5.20;;;1.57;;
24801;SDS011;12898;50.520;12.152;2023-02-04T14:22:15;3.60;;;1.80;;
24801;SDS011;12898;50.520;12.152;2023-02-04T14:24:41;3.97;;;2.00;;
24801;SDS011;12898;50.520;12.152;2023-02-04T14:27:09;7.93;;;2.53;;
24801;SDS011;12898;50.520;12.152;2023-02-04T14:29:35;8.33;;;3.70;;
24801;SDS011;12898;50.520;12.152;2023-02-04T14:32:01;8.20;;;3.30;;
24801;SDS011;12898;50.520;12.152;2023-02-04T14:34:27;5.53;;;1.95;;
24801;SDS011;12898;50.520;12.152;2023-02-04T14:36:52;6.53;;;2.93;;
24801;SDS011;12898;50.520;12.152;2023-02-04T14:39:18;6.10;;;2.40;;
24801;SDS011;12898;50.520;12.152;2023-02-04T14:41:44;2.53;;;1.60;;
24801;SDS011;12898;50.520;12.152;2023-02-04T14:44:09;4.93;;;2.13;;
24801;SDS011;12898;50.520;12.152;2023-02-04T14:46:35;3.90;;;1.80;;
24801;SDS011;12898;50.520;12.152;2023-02-04T14:49:01;3.30;;;1.50;;
24801;SDS011;12898;50.520;12.152;2023-02-04T14:51:27;3.53;;;1.77;;
24801;SDS011;12898;50.520;12.152;2023-02-04T14:53:52;2.47;;;1.30;;
24801;SDS011;12898;50.520;12.152;2023-02-04T14:56:18;5.27;;;1.80;;
24801;SDS011;12898;50.520;12.152;2023-02-04T14:58:44;5.20;;;2.13;;